createdAt,value
2022-08-14T00:01:03.831Z,7.20
2022-08-14T00:03:40.731Z,7.10
2022-08-14T00:06:25.912Z,7.32
2022-08-14T00:08:59.188Z,7.13
2022-08-14T00:11:27.045Z,6.72
2022-08-14T00:13:58.989Z,7.05
2022-08-14T00:16:41.732Z,7.03
2022-08-14T00:19:19.848Z,6.82
2022-08-14T00:21:50.300Z,7.03
2022-08-14T00:24:28.636Z,8.00
2022-08-14T00:26:56.969Z,7.07
2022-08-14T00:29:25.291Z,6.93
2022-08-14T00:31:54.520Z,7.53
2022-08-14T00:34:35.467Z,6.63
2022-08-14T00:37:05.568Z,7.75
2022-08-14T00:39:33.282Z,7.03
2022-08-14T00:42:01.220Z,7.10
2022-08-14T00:44:32.997Z,7.78
2022-08-14T00:47:01.294Z,7.20
2022-08-14T00:49:37.764Z,7.20
2022-08-14T00:52:06.981Z,7.30
2022-08-14T00:54:34.548Z,7.45
2022-08-14T00:57:03.097Z,7.30
2022-08-14T00:59:31.471Z,7.45
2022-08-14T01:02:01.332Z,8.45
2022-08-14T01:04:37.821Z,7.97
2022-08-14T01:07:21.872Z,7.90
2022-08-14T01:09:50.665Z,7.40
2022-08-14T01:12:26.913Z,7.85
2022-08-14T01:14:58.186Z,7.32
2022-08-14T01:17:49.931Z,7.68
2022-08-14T01:20:40.054Z,8.07
2022-08-14T01:23:10.478Z,6.95
2022-08-14T01:25:44.595Z,6.85
2022-08-14T01:28:46.351Z,7.63
2022-08-14T01:31:01.766Z,7.63
2022-08-14T01:33:30.634Z,7.47
2022-08-14T01:36:22.754Z,7.80
2022-08-14T01:38:53.495Z,7.82
2022-08-14T01:41:23.081Z,8.13
2022-08-14T01:44:00.928Z,7.82
2022-08-14T01:46:33.506Z,7.90
2022-08-14T01:49:05.276Z,7.28
2022-08-14T01:51:35.262Z,7.78
2022-08-14T01:54:09.360Z,7.30
2022-08-14T01:56:39.348Z,8.07
2022-08-14T01:59:10.004Z,7.47
2022-08-14T02:01:58.186Z,7.15
2022-08-14T02:04:55.773Z,7.82
2022-08-14T02:07:27.276Z,7.43
2022-08-14T02:10:15.813Z,7.82
2022-08-14T02:12:43.800Z,7.80
2022-08-14T02:15:12.625Z,7.68
2022-08-14T02:17:43.220Z,7.63
2022-08-14T02:20:12.217Z,8.00
2022-08-14T02:22:47.791Z,8.10
2022-08-14T02:25:18.857Z,7.57
2022-08-14T02:28:25.368Z,8.43
2022-08-14T02:30:38.513Z,8.20
2022-08-14T02:33:07.304Z,7.88
2022-08-14T02:35:40.760Z,7.90
2022-08-14T02:38:11.857Z,8.57
2022-08-14T02:40:57.754Z,8.35
2022-08-14T02:43:37.308Z,8.10
2022-08-14T02:46:20.653Z,8.43
2022-08-14T02:49:03.831Z,8.55
2022-08-14T02:51:33.535Z,8.05
2022-08-14T02:54:03.710Z,7.85
2022-08-14T02:57:16.202Z,8.02
2022-08-14T02:59:24.375Z,8.05
2022-08-14T03:01:57.352Z,8.60
2022-08-14T03:04:26.393Z,8.25
2022-08-14T03:06:58.304Z,8.40
2022-08-14T03:10:27.040Z,8.73
2022-08-14T03:12:30.700Z,8.55
2022-08-14T03:14:59.542Z,8.48
2022-08-14T03:17:31.584Z,8.50
2022-08-14T03:19:59.703Z,8.50
2022-08-14T03:22:27.765Z,8.60
2022-08-14T03:24:57.379Z,8.75
2022-08-14T03:27:35.474Z,9.70
2022-08-14T03:30:14.813Z,9.15
2022-08-14T03:32:51.478Z,9.60
2022-08-14T03:35:19.767Z,9.02
2022-08-14T03:39:10.361Z,9.48
2022-08-14T03:40:35.027Z,9.73
2022-08-14T03:43:05.715Z,9.32
2022-08-14T03:45:35.391Z,9.95
2022-08-14T03:48:03.999Z,9.00
2022-08-14T03:50:39.328Z,10.13
2022-08-14T03:53:06.895Z,10.60
2022-08-14T03:55:35.103Z,9.73
2022-08-14T03:58:03.965Z,9.45
2022-08-14T04:00:43.508Z,10.88
2022-08-14T04:03:23.484Z,10.25
2022-08-14T04:05:52.450Z,10.63
2022-08-14T04:08:30.055Z,10.07
2022-08-14T04:11:01.518Z,10.65
2022-08-14T04:13:31.412Z,10.00
2022-08-14T04:16:05.179Z,9.73
2022-08-14T04:18:34.615Z,10.63
2022-08-14T04:21:02.390Z,8.90
2022-08-14T04:23:33.420Z,10.35
2022-08-14T04:26:01.928Z,10.77
2022-08-14T04:29:07.021Z,10.40
2022-08-14T04:31:34.634Z,10.32
2022-08-14T04:34:07.930Z,9.55
2022-08-14T04:36:55.974Z,9.93
2022-08-14T04:39:37.462Z,10.32
2022-08-14T04:42:31.209Z,10.05
2022-08-14T04:45:01.399Z,9.70
2022-08-14T04:47:46.762Z,9.48
2022-08-14T04:50:33.639Z,10.48
2022-08-14T04:53:01.470Z,9.13
2022-08-14T04:55:29.664Z,9.98
2022-08-14T04:57:58.930Z,10.38
2022-08-14T05:00:28.295Z,10.00
2022-08-14T05:02:57.067Z,9.20
2022-08-14T05:05:25.003Z,9.55
2022-08-14T05:08:01.345Z,10.05
2022-08-14T05:10:32.303Z,9.90
2022-08-14T05:13:24.342Z,10.10
2022-08-14T05:15:48.900Z,10.27
2022-08-14T05:19:16.751Z,9.38
2022-08-14T05:22:00.029Z,9.18
2022-08-14T05:23:59.043Z,9.98
2022-08-14T05:26:26.671Z,9.40
2022-08-14T05:28:54.248Z,9.55
2022-08-14T05:31:23.051Z,9.70
2022-08-14T05:33:57.783Z,10.13
2022-08-14T05:36:27.214Z,9.65
2022-08-14T05:38:55.383Z,9.27
2022-08-14T05:41:22.970Z,8.98
2022-08-14T05:43:55.146Z,9.13
2022-08-14T05:46:23.955Z,9.18
2022-08-14T05:48:53.202Z,9.35
2022-08-14T05:51:21.757Z,9.50
2022-08-14T05:54:00.100Z,8.93
2022-08-14T05:56:37.571Z,8.85
2022-08-14T05:59:05.485Z,8.02
2022-08-14T06:01:34.362Z,8.95
2022-08-14T06:04:04.470Z,8.82
2022-08-14T06:06:38.061Z,9.32
2022-08-14T06:09:07.366Z,8.80
2022-08-14T06:11:37.825Z,8.70
2022-08-14T06:14:12.454Z,8.05
2022-08-14T06:16:53.040Z,8.85
2022-08-14T06:19:20.837Z,8.35
2022-08-14T06:21:55.806Z,8.25
2022-08-14T06:24:26.216Z,8.32
2022-08-14T06:26:56.878Z,8.13
2022-08-14T06:29:33.564Z,8.18
2022-08-14T06:32:38.156Z,8.50
2022-08-14T06:35:04.693Z,7.45
2022-08-14T06:37:40.293Z,7.18
2022-08-14T06:40:25.794Z,7.68
2022-08-14T06:42:56.485Z,7.55
2022-08-14T06:45:26.250Z,7.82
2022-08-14T06:47:55.581Z,7.05
2022-08-14T06:50:28.585Z,6.85
2022-08-14T06:52:58.243Z,6.95
2022-08-14T06:55:27.708Z,7.30
2022-08-14T06:57:57.576Z,7.32
2022-08-14T07:00:26.944Z,6.60
2022-08-14T07:03:14.293Z,6.60
2022-08-14T07:05:57.700Z,4.57
2022-08-14T07:08:29.758Z,4.63
2022-08-14T07:11:00.077Z,4.82
2022-08-14T07:13:28.517Z,4.13
2022-08-14T07:15:58.881Z,5.00
2022-08-14T07:18:30.017Z,4.45
2022-08-14T07:20:59.169Z,3.97
2022-08-14T07:23:27.157Z,4.30
2022-08-14T07:25:56.498Z,3.70
2022-08-14T07:28:26.528Z,4.03
2022-08-14T07:30:57.661Z,3.05
2022-08-14T07:33:34.330Z,3.00
2022-08-14T07:36:03.444Z,2.83
2022-08-14T07:38:52.245Z,2.97
2022-08-14T07:41:20.061Z,3.00
2022-08-14T07:43:55.572Z,2.88
2022-08-14T07:46:29.412Z,2.75
2022-08-14T07:49:00.024Z,2.58
2022-08-14T07:51:36.535Z,3.10
2022-08-14T07:54:10.899Z,2.55
2022-08-14T07:56:47.993Z,2.53
2022-08-14T07:59:18.135Z,2.20
2022-08-14T08:01:48.239Z,2.53
2022-08-14T08:04:25.120Z,2.55
2022-08-14T08:06:53.596Z,2.78
2022-08-14T08:09:24.892Z,2.28
2022-08-14T08:12:00.370Z,2.03
2022-08-14T08:14:28.474Z,2.53
2022-08-14T08:16:57.211Z,2.58
2022-08-14T08:19:27.321Z,2.17
2022-08-14T08:22:04.437Z,2.10
2022-08-14T08:24:33.853Z,2.20
2022-08-14T08:27:02.540Z,1.80
2022-08-14T08:29:31.198Z,2.05
2022-08-14T08:32:01.575Z,2.45
2022-08-14T08:34:45.331Z,2.17
2022-08-14T08:37:13.707Z,2.22
2022-08-14T08:40:01.126Z,2.53
2022-08-14T08:42:31.412Z,2.03
2022-08-14T08:45:06.457Z,2.30
2022-08-14T08:47:40.476Z,2.15
2022-08-14T08:50:23.027Z,2.42
2022-08-14T08:52:59.118Z,2.05
2022-08-14T08:55:28.111Z,2.00
2022-08-14T08:57:56.487Z,1.60
2022-08-14T09:00:26.399Z,1.80
2022-08-14T09:02:57.637Z,1.85
2022-08-14T09:05:27.281Z,1.70
2022-08-14T09:07:56.606Z,1.83
2022-08-14T09:10:26.014Z,1.60
2022-08-14T09:12:56.864Z,1.58
2022-08-14T09:15:24.876Z,1.55
2022-08-14T09:17:54.654Z,1.70
2022-08-14T09:20:29.475Z,1.30
2022-08-14T09:22:59.699Z,1.50
2022-08-14T09:25:59.098Z,2.00
2022-08-14T09:28:16.801Z,1.70
2022-08-14T09:30:45.926Z,2.10
2022-08-14T09:33:31.849Z,2.03
2022-08-14T09:36:18.420Z,2.00
2022-08-14T09:38:53.760Z,1.92
2022-08-14T09:42:21.049Z,1.83
2022-08-14T09:44:29.796Z,2.17
2022-08-14T09:46:59.840Z,1.88
2022-08-14T09:49:34.357Z,1.92
2022-08-14T09:52:33.500Z,1.92
2022-08-14T09:54:59.195Z,1.85
2022-08-14T09:57:28.881Z,2.10
2022-08-14T09:59:56.839Z,2.20
2022-08-14T10:02:25.167Z,2.40
2022-08-14T10:05:04.660Z,2.13
2022-08-14T10:07:37.238Z,2.55
2022-08-14T10:10:23.672Z,2.50
2022-08-14T10:12:54.897Z,2.60
2022-08-14T10:15:29.752Z,2.83
2022-08-14T10:18:09.349Z,2.90
2022-08-14T10:20:48.210Z,3.05
2022-08-14T10:23:18.624Z,2.80
2022-08-14T10:25:51.315Z,2.95
2022-08-14T10:29:04.002Z,2.88
2022-08-14T10:31:17.516Z,3.50
2022-08-14T10:34:00.220Z,3.17
2022-08-14T10:36:36.901Z,4.00
2022-08-14T10:39:09.770Z,4.05
2022-08-14T10:41:48.437Z,3.17
2022-08-14T10:44:20.831Z,2.80
2022-08-14T10:47:39.771Z,3.42
2022-08-14T10:49:49.963Z,3.97
2022-08-14T10:52:22.138Z,3.25
2022-08-14T10:54:49.880Z,2.60
2022-08-14T10:57:26.851Z,2.80
2022-08-14T10:59:56.872Z,2.65
2022-08-14T11:02:50.119Z,2.65
2022-08-14T11:05:18.377Z,2.80
2022-08-14T11:07:56.441Z,2.60
2022-08-14T11:10:27.781Z,2.60
2022-08-14T11:13:00.360Z,2.65
2022-08-14T11:15:32.332Z,2.55
2022-08-14T11:18:01.559Z,3.20
2022-08-14T11:20:30.995Z,2.75
2022-08-14T11:23:03.639Z,2.75
2022-08-14T11:25:41.343Z,2.45
2022-08-14T11:28:14.852Z,2.88
2022-08-14T11:30:53.541Z,2.85
2022-08-14T11:33:24.351Z,3.22
2022-08-14T11:35:52.080Z,3.13
2022-08-14T11:38:21.728Z,3.63
2022-08-14T11:40:49.418Z,4.85
2022-08-14T11:43:18.376Z,2.67
2022-08-14T11:45:50.500Z,2.70
2022-08-14T11:48:59.190Z,3.20
2022-08-14T11:51:13.432Z,3.03
2022-08-14T11:53:43.547Z,3.40
2022-08-14T11:56:13.402Z,2.92
2022-08-14T11:58:42.513Z,2.90
2022-08-14T12:01:10.411Z,2.78
2022-08-14T12:03:51.178Z,2.75
2022-08-14T12:06:29.105Z,3.00
2022-08-14T12:09:08.479Z,2.40
2022-08-14T12:11:43.462Z,2.65
2022-08-14T12:14:30.091Z,1.83
2022-08-14T12:17:05.031Z,2.33
2022-08-14T12:19:33.750Z,2.63
2022-08-14T12:22:02.625Z,2.70
2022-08-14T12:24:36.382Z,2.33
2022-08-14T12:27:04.534Z,2.25
2022-08-14T12:29:36.292Z,2.25
2022-08-14T12:32:09.006Z,2.28
2022-08-14T12:34:44.965Z,2.63
2022-08-14T12:37:12.848Z,2.55
2022-08-14T12:39:40.911Z,2.95
2022-08-14T12:42:11.925Z,3.08
2022-08-14T12:44:57.669Z,2.55
2022-08-14T12:47:31.425Z,3.05
2022-08-14T12:50:00.118Z,3.10
2022-08-14T12:52:36.235Z,2.60
2022-08-14T12:55:16.749Z,2.63
2022-08-14T12:57:49.397Z,2.63
2022-08-14T13:00:24.425Z,2.80
2022-08-14T13:02:54.893Z,2.38
2022-08-14T13:05:24.435Z,2.05
2022-08-14T13:07:57.143Z,2.10
2022-08-14T13:10:46.176Z,2.30
2022-08-14T13:13:17.109Z,2.53
2022-08-14T13:15:47.158Z,2.47
2022-08-14T13:18:15.865Z,2.75
2022-08-14T13:20:51.860Z,2.90
2022-08-14T13:23:30.535Z,2.63
2022-08-14T13:26:00.316Z,2.40
2022-08-14T13:28:33.721Z,2.53
2022-08-14T13:31:10.930Z,2.70
2022-08-14T13:33:40.699Z,3.00
2022-08-14T13:36:09.491Z,2.65
2022-08-14T13:38:37.878Z,3.08
2022-08-14T13:41:07.089Z,2.88
2022-08-14T13:43:36.830Z,3.08
2022-08-14T13:46:20.966Z,2.47
2022-08-14T13:48:54.689Z,2.95
2022-08-14T13:51:27.142Z,2.55
2022-08-14T13:54:10.049Z,2.55
2022-08-14T13:56:39.164Z,2.42
2022-08-14T13:59:07.290Z,2.75
2022-08-14T14:01:43.287Z,2.50
2022-08-14T14:04:17.930Z,2.58
2022-08-14T14:06:48.397Z,2.63
2022-08-14T14:09:16.704Z,2.53
2022-08-14T14:11:44.613Z,2.58
2022-08-14T14:14:44.634Z,1.98
2022-08-14T14:17:01.603Z,2.00
2022-08-14T14:19:31.284Z,2.80
2022-08-14T14:21:59.071Z,2.65
2022-08-14T14:24:26.575Z,2.90
2022-08-14T14:27:30.095Z,3.67
2022-08-14T14:29:55.725Z,3.53
2022-08-14T14:32:32.200Z,3.08
2022-08-14T14:35:01.426Z,3.35
2022-08-14T14:37:29.355Z,3.42
2022-08-14T14:40:54.632Z,2.72
2022-08-14T14:42:47.118Z,3.00
2022-08-14T14:45:20.437Z,3.10
2022-08-14T14:47:51.547Z,2.80
2022-08-14T14:50:27.299Z,3.55
2022-08-14T14:53:00.818Z,3.13
2022-08-14T14:56:46.776Z,3.22
2022-08-14T14:58:31.789Z,3.53
2022-08-14T15:01:00.470Z,3.15
2022-08-14T15:03:32.931Z,3.00
2022-08-14T15:06:00.987Z,2.95
2022-08-14T15:08:56.630Z,2.88
2022-08-14T15:11:16.281Z,3.10
2022-08-14T15:13:53.331Z,2.67
2022-08-14T15:16:21.104Z,3.15
2022-08-14T15:18:50.123Z,3.47
2022-08-14T15:21:20.350Z,3.08
2022-08-14T15:23:48.095Z,2.80
2022-08-14T15:26:24.209Z,3.10
2022-08-14T15:29:02.723Z,3.00
2022-08-14T15:31:32.816Z,3.60
2022-08-14T15:34:45.886Z,3.40
2022-08-14T15:37:02.064Z,3.15
2022-08-14T15:39:35.909Z,3.05
2022-08-14T15:42:14.958Z,3.25
2022-08-14T15:44:57.047Z,4.15
2022-08-14T15:47:28.050Z,3.75
2022-08-14T15:49:59.583Z,3.58
2022-08-14T15:52:34.374Z,3.35
2022-08-14T15:55:04.452Z,3.83
2022-08-14T15:57:32.262Z,3.05
2022-08-14T16:00:21.552Z,3.65
2022-08-14T16:03:08.732Z,2.90
2022-08-14T16:05:38.869Z,3.70
2022-08-14T16:08:07.464Z,4.70
2022-08-14T16:10:55.004Z,4.20
2022-08-14T16:13:38.899Z,3.35
2022-08-14T16:16:50.461Z,6.18
2022-08-14T16:18:58.875Z,3.60
2022-08-14T16:21:29.477Z,3.40
2022-08-14T16:24:00.882Z,4.88
2022-08-14T16:26:29.851Z,3.85
2022-08-14T16:29:07.452Z,3.67
2022-08-14T16:31:36.872Z,3.38
2022-08-14T16:34:44.470Z,3.33
2022-08-14T16:36:57.146Z,13.13
2022-08-14T16:39:24.976Z,7.72
2022-08-14T16:41:53.551Z,3.88
2022-08-14T16:44:33.735Z,6.32
2022-08-14T16:47:03.109Z,3.45
2022-08-14T16:50:02.972Z,3.65
2022-08-14T16:52:25.514Z,3.47
2022-08-14T16:55:09.179Z,3.42
2022-08-14T16:57:47.380Z,3.50
2022-08-14T17:00:28.817Z,6.70
2022-08-14T17:03:00.309Z,3.90
2022-08-14T17:05:29.216Z,4.90
2022-08-14T17:08:41.511Z,3.63
2022-08-14T17:11:10.645Z,3.80
2022-08-14T17:13:59.303Z,6.35
2022-08-14T17:16:29.467Z,3.40
2022-08-14T17:19:01.739Z,3.15
2022-08-14T17:21:32.241Z,2.85
2022-08-14T17:24:57.980Z,3.65
2022-08-14T17:26:55.643Z,2.80
2022-08-14T17:29:24.262Z,3.72
2022-08-14T17:32:02.233Z,4.05
2022-08-14T17:34:45.442Z,4.40
2022-08-14T17:37:24.970Z,3.95
2022-08-14T17:40:02.151Z,3.53
2022-08-14T17:42:55.637Z,5.60
2022-08-14T17:45:43.187Z,4.38
2022-08-14T17:49:10.699Z,4.63
2022-08-14T17:51:12.878Z,5.32
2022-08-14T17:53:53.310Z,3.83
2022-08-14T17:56:30.919Z,6.07
2022-08-14T17:59:01.543Z,4.30
2022-08-14T18:01:29.645Z,4.00
2022-08-14T18:03:57.676Z,3.70
2022-08-14T18:06:39.399Z,3.78
2022-08-14T18:09:25.917Z,3.80
2022-08-14T18:11:57.066Z,3.10
2022-08-14T18:14:32.724Z,5.30
2022-08-14T18:17:16.042Z,5.70
2022-08-14T18:19:45.116Z,3.53
2022-08-14T18:22:31.211Z,9.50
2022-08-14T18:25:02.403Z,4.10
2022-08-14T18:27:33.512Z,5.78
2022-08-14T18:30:31.686Z,5.50
2022-08-14T18:32:54.880Z,4.00
2022-08-14T18:35:23.717Z,4.85
2022-08-14T18:38:25.608Z,4.43
2022-08-14T18:40:56.166Z,6.72
2022-08-14T18:43:44.732Z,12.43
2022-08-14T18:46:59.944Z,4.18
2022-08-14T18:49:14.587Z,5.50
2022-08-14T18:51:45.577Z,5.55
2022-08-14T18:54:27.422Z,8.93
2022-08-14T18:57:01.691Z,6.53
2022-08-14T18:59:35.666Z,5.03
2022-08-14T19:02:22.654Z,4.97
2022-08-14T19:04:59.823Z,4.50
2022-08-14T19:07:33.421Z,4.60
2022-08-14T19:10:02.511Z,4.57
2022-08-14T19:12:49.609Z,5.13
2022-08-14T19:15:26.042Z,5.88
2022-08-14T19:18:14.869Z,4.28
2022-08-14T19:20:52.818Z,3.85
2022-08-14T19:23:23.306Z,4.60
2022-08-14T19:26:36.415Z,4.05
2022-08-14T19:29:37.499Z,4.88
2022-08-14T19:32:29.000Z,4.78
2022-08-14T19:34:59.892Z,4.40
2022-08-14T19:37:52.785Z,4.40
2022-08-14T19:40:33.244Z,4.57
2022-08-14T19:43:03.051Z,4.47
2022-08-14T19:45:34.460Z,4.10
2022-08-14T19:48:05.237Z,4.78
2022-08-14T19:50:40.373Z,5.10
2022-08-14T19:53:12.086Z,4.57
2022-08-14T19:55:47.434Z,4.85
2022-08-14T19:58:16.242Z,5.35
2022-08-14T20:00:52.315Z,5.25
2022-08-14T20:03:24.032Z,5.05
2022-08-14T20:05:59.903Z,5.90
2022-08-14T20:08:40.436Z,6.68
2022-08-14T20:12:00.168Z,5.50
2022-08-14T20:14:22.951Z,6.50
2022-08-14T20:17:04.691Z,6.30
2022-08-14T20:19:37.725Z,5.72
2022-08-14T20:22:37.145Z,5.95
2022-08-14T20:25:11.153Z,4.95
2022-08-14T20:27:44.088Z,4.75
2022-08-14T20:30:33.474Z,5.00
2022-08-14T20:33:04.527Z,4.55
2022-08-14T20:35:38.203Z,5.20
2022-08-14T20:38:29.198Z,5.22
2022-08-14T20:40:57.787Z,5.40
2022-08-14T20:43:44.449Z,6.10
2022-08-14T20:46:13.346Z,6.60
2022-08-14T20:48:50.814Z,5.63
2022-08-14T20:51:24.282Z,5.20
2022-08-14T20:53:58.660Z,5.75
2022-08-14T20:56:28.638Z,5.38
2022-08-14T20:58:58.399Z,5.03
2022-08-14T21:01:35.872Z,5.85
2022-08-14T21:04:05.034Z,6.70
2022-08-14T21:07:24.425Z,6.30
2022-08-14T21:09:43.793Z,4.57
2022-08-14T21:12:33.959Z,5.07
2022-08-14T21:15:03.357Z,5.45
2022-08-14T21:17:37.534Z,5.18
2022-08-14T21:20:25.938Z,5.30
2022-08-14T21:23:00.148Z,4.70
2022-08-14T21:25:31.331Z,4.88
2022-08-14T21:28:00.843Z,4.97
2022-08-14T21:30:51.180Z,5.05
2022-08-14T21:33:20.602Z,4.25
2022-08-14T21:35:49.469Z,4.60
2022-08-14T21:38:31.252Z,4.70
2022-08-14T21:41:42.344Z,4.53
2022-08-14T21:43:59.296Z,4.82
2022-08-14T21:46:28.645Z,4.20
2022-08-14T21:48:58.107Z,4.85
2022-08-14T21:51:54.373Z,4.88
2022-08-14T21:54:30.207Z,4.95
2022-08-14T21:57:00.562Z,5.07
2022-08-14T21:59:31.074Z,4.97
2022-08-14T22:02:03.732Z,4.72
2022-08-14T22:04:40.089Z,5.22
2022-08-14T22:07:10.067Z,4.53
2022-08-14T22:09:38.383Z,5.00
2022-08-14T22:12:58.127Z,4.80
2022-08-14T22:15:00.224Z,4.80
2022-08-14T22:17:32.498Z,4.50
2022-08-14T22:20:05.194Z,4.32
2022-08-14T22:22:32.944Z,4.88
2022-08-14T22:25:01.030Z,4.22
2022-08-14T22:27:32.135Z,4.22
2022-08-14T22:30:00.407Z,4.55
2022-08-14T22:32:35.138Z,4.53
2022-08-14T22:35:17.385Z,4.57
2022-08-14T22:37:45.129Z,4.53
2022-08-14T22:40:48.364Z,4.07
2022-08-14T22:43:08.282Z,3.92
2022-08-14T22:45:37.788Z,3.53
2022-08-14T22:48:11.215Z,4.70
2022-08-14T22:50:48.895Z,4.05
2022-08-14T22:53:16.924Z,4.60
2022-08-14T22:55:47.099Z,4.32
2022-08-14T22:58:17.483Z,4.13
2022-08-14T23:00:45.763Z,3.58
2022-08-14T23:03:17.399Z,4.50
2022-08-14T23:05:52.768Z,4.38
2022-08-14T23:09:01.545Z,4.40
2022-08-14T23:11:10.333Z,4.25
2022-08-14T23:13:41.184Z,4.05
2022-08-14T23:16:20.295Z,4.28
2022-08-14T23:18:53.487Z,3.83
2022-08-14T23:21:24.226Z,4.90
2022-08-14T23:23:55.030Z,4.57
2022-08-14T23:26:47.974Z,3.83
2022-08-14T23:29:11.751Z,4.32
2022-08-14T23:31:40.263Z,4.68
2022-08-14T23:34:09.406Z,4.38
2022-08-14T23:36:53.376Z,4.72
2022-08-14T23:39:24.572Z,4.60
2022-08-14T23:41:57.366Z,5.07
2022-08-14T23:44:32.152Z,4.20
2022-08-14T23:47:10.441Z,4.60
2022-08-14T23:49:56.754Z,3.90
2022-08-14T23:52:51.543Z,4.13
2022-08-14T23:55:16.872Z,4.07
2022-08-14T23:57:58.035Z,4.18
